sensor_id;sensor_type;location;lat;lon;timestamp;pressure;altitude;pressure_sealevel;temperature;humidity
64023;BME280;50264;52.088;5.296;2023-04-08T00:00:30;102238.0;;;9.18;98.19
64023;BME280;50264;52.088;5.296;2023-04-08T00:03:43;102240.0;;;9.15;98.33
64023;BME280;50264;52.088;5.296;2023-04-08T00:05:19;102241.0;;;9.14;98.75
64023;BME280;50264;52.088;5.296;2023-04-08T00:06:55;102240.0;;;9.08;98.66
64023;BME280;50264;52.088;5.296;2023-04-08T00:08:31;102245.0;;;9.02;99.16
64023;BME280;50264;52.088;5.296;2023-04-08T00:11:44;102247.0;;;9.05;99.1
64023;BME280;50264;52.088;5.296;2023-04-08T00:13:20;102241.0;;;9.09;98.67
64023;BME280;50264;52.088;5.296;2023-04-08T00:14:56;102245.0;;;9.01;98.87
64023;BME280;50264;52.088;5.296;2023-04-08T00:18:08;102242.0;;;8.97;99.26
64023;BME280;50264;52.088;5.296;2023-04-08T00:19:45;102242.0;;;8.94;99.28
64023;BME280;50264;52.088;5.296;2023-04-08T00:21:21;102239.0;;;8.93;99.72
64023;BME280;50264;52.088;5.296;2023-04-08T00:24:34;102245.0;;;8.84;99.85
64023;BME280;50264;52.088;5.296;2023-04-08T00:26:10;102243.0;;;8.75;99.98
64023;BME280;50264;52.088;5.296;2023-04-08T00:27:46;102246.0;;;8.73;100.0
64023;BME280;50264;52.088;5.296;2023-04-08T00:29:22;102242.0;;;8.68;100.0
64023;BME280;50264;52.088;5.296;2023-04-08T00:32:35;102245.0;;;8.69;100.0
64023;BME280;50264;52.088;5.296;2023-04-08T00:34:11;102245.0;;;8.64;100.0
64023;BME280;50264;52.088;5.296;2023-04-08T00:35:47;102246.0;;;8.69;100.0
64023;BME280;50264;52.088;5.296;2023-04-08T00:38:59;102249.0;;;8.66;100.0
64023;BME280;50264;52.088;5.296;2023-04-08T00:40:35;102250.0;;;8.67;100.0
64023;BME280;50264;52.088;5.296;2023-04-08T00:42:12;102247.0;;;8.58;100.0
64023;BME280;50264;52.088;5.296;2023-04-08T00:45:24;102252.0;;;8.58;100.0
64023;BME280;50264;52.088;5.296;2023-04-08T00:47:02;102245.0;;;8.57;100.0
64023;BME280;50264;52.088;5.296;2023-04-08T00:48:39;102247.0;;;8.64;100.0
64023;BME280;50264;52.088;5.296;2023-04-08T00:51:52;102250.0;;;8.61;100.0
64023;BME280;50264;52.088;5.296;2023-04-08T00:53:30;102251.0;;;8.52;100.0
64023;BME280;50264;52.088;5.296;2023-04-08T00:55:06;102252.0;;;8.65;100.0
64023;BME280;50264;52.088;5.296;2023-04-08T00:56:42;102248.0;;;8.57;100.0
64023;BME280;50264;52.088;5.296;2023-04-08T00:59:56;102252.0;;;8.53;100.0
64023;BME280;50264;52.088;5.296;2023-04-08T01:01:42;102246.0;;;8.55;100.0
64023;BME280;50264;52.088;5.296;2023-04-08T01:03:24;102253.0;;;8.6;100.0
64023;BME280;50264;52.088;5.296;2023-04-08T01:05:13;102252.0;;;8.64;100.0
64023;BME280;50264;52.088;5.296;2023-04-08T01:08:34;102260.0;;;8.56;100.0
64023;BME280;50264;52.088;5.296;2023-04-08T01:10:17;102261.0;;;8.48;100.0
64023;BME280;50264;52.088;5.296;2023-04-08T01:12:06;102263.0;;;8.42;100.0
64023;BME280;50264;52.088;5.296;2023-04-08T01:13:44;102264.0;;;8.4;100.0
64023;BME280;50264;52.088;5.296;2023-04-08T01:17:01;102266.0;;;8.41;100.0
64023;BME280;50264;52.088;5.296;2023-04-08T01:18:37;102261.0;;;8.36;100.0
64023;BME280;50264;52.088;5.296;2023-04-08T01:20:15;102265.0;;;8.35;100.0
64023;BME280;50264;52.088;5.296;2023-04-08T01:21:54;102266.0;;;8.22;100.0
64023;BME280;50264;52.088;5.296;2023-04-08T01:25:20;102266.0;;;8.25;100.0
64023;BME280;50264;52.088;5.296;2023-04-08T01:26:59;102270.0;;;8.23;100.0
64023;BME280;50264;52.088;5.296;2023-04-08T01:28:38;102269.0;;;8.26;100.0
64023;BME280;50264;52.088;5.296;2023-04-08T01:30:17;102271.0;;;8.25;100.0
64023;BME280;50264;52.088;5.296;2023-04-08T01:33:31;102270.0;;;8.28;100.0
64023;BME280;50264;52.088;5.296;2023-04-08T01:35:08;102265.0;;;8.14;100.0
64023;BME280;50264;52.088;5.296;2023-04-08T01:36:46;102270.0;;;8.02;100.0
64023;BME280;50264;52.088;5.296;2023-04-08T01:40:01;102273.0;;;8.24;100.0
64023;BME280;50264;52.088;5.296;2023-04-08T01:41:38;102269.0;;;8.16;100.0
64023;BME280;50264;52.088;5.296;2023-04-08T01:43:16;102273.0;;;8.06;100.0
64023;BME280;50264;52.088;5.296;2023-04-08T01:44:55;102272.0;;;8.13;100.0
64023;BME280;50264;52.088;5.296;2023-04-08T01:48:11;102274.0;;;8.03;100.0
64023;BME280;50264;52.088;5.296;2023-04-08T01:49:49;102277.0;;;8.06;100.0
64023;BME280;50264;52.088;5.296;2023-04-08T01:51:27;102275.0;;;8.13;100.0
64023;BME280;50264;52.088;5.296;2023-04-08T01:53:07;102280.0;;;7.97;100.0
64023;BME280;50264;52.088;5.296;2023-04-08T01:56:21;102276.0;;;7.82;100.0
64023;BME280;50264;52.088;5.296;2023-04-08T01:57:59;102278.0;;;7.8;100.0
64023;BME280;50264;52.088;5.296;2023-04-08T01:59:37;102276.0;;;7.79;100.0
64023;BME280;50264;52.088;5.296;2023-04-08T02:02:56;102274.0;;;7.76;100.0
64023;BME280;50264;52.088;5.296;2023-04-08T02:04:34;102275.0;;;7.72;100.0
64023;BME280;50264;52.088;5.296;2023-04-08T02:06:11;102269.0;;;7.78;100.0
64023;BME280;50264;52.088;5.296;2023-04-08T02:11:00;102271.0;;;7.81;100.0
64023;BME280;50264;52.088;5.296;2023-04-08T02:12:37;102273.0;;;7.78;100.0
64023;BME280;50264;52.088;5.296;2023-04-08T02:14:15;102270.0;;;7.75;100.0
64023;BME280;50264;52.088;5.296;2023-04-08T02:17:39;102269.0;;;7.7;100.0
64023;BME280;50264;52.088;5.296;2023-04-08T02:19:23;102273.0;;;7.59;100.0
64023;BME280;50264;52.088;5.296;2023-04-08T02:21:09;102271.0;;;7.61;100.0
64023;BME280;50264;52.088;5.296;2023-04-08T02:24:40;102272.0;;;7.74;100.0
64023;BME280;50264;52.088;5.296;2023-04-08T02:27:58;102270.0;;;7.59;100.0
64023;BME280;50264;52.088;5.296;2023-04-08T02:29:39;102272.0;;;7.68;100.0
64023;BME280;50264;52.088;5.296;2023-04-08T02:31:17;102277.0;;;7.69;100.0
64023;BME280;50264;52.088;5.296;2023-04-08T02:32:56;102277.0;;;7.64;100.0
64023;BME280;50264;52.088;5.296;2023-04-08T02:36:11;102280.0;;;7.65;100.0
64023;BME280;50264;52.088;5.296;2023-04-08T02:37:49;102278.0;;;7.79;100.0
64023;BME280;50264;52.088;5.296;2023-04-08T02:39:30;102281.0;;;7.76;100.0
64023;BME280;50264;52.088;5.296;2023-04-08T02:42:42;102286.0;;;7.72;100.0
64023;BME280;50264;52.088;5.296;2023-04-08T02:44:18;102285.0;;;7.74;100.0
64023;BME280;50264;52.088;5.296;2023-04-08T02:45:54;102287.0;;;7.79;100.0
64023;BME280;50264;52.088;5.296;2023-04-08T02:47:30;102294.0;;;7.85;100.0
64023;BME280;50264;52.088;5.296;2023-04-08T02:50:43;102291.0;;;7.88;100.0
64023;BME280;50264;52.088;5.296;2023-04-08T02:52:19;102288.0;;;7.86;100.0
64023;BME280;50264;52.088;5.296;2023-04-08T02:53:55;102292.0;;;7.9;100.0
64023;BME280;50264;52.088;5.296;2023-04-08T02:57:07;102293.0;;;7.88;100.0
64023;BME280;50264;52.088;5.296;2023-04-08T02:58:44;102294.0;;;7.88;100.0
64023;BME280;50264;52.088;5.296;2023-04-08T03:00:20;102293.0;;;7.85;100.0
64023;BME280;50264;52.088;5.296;2023-04-08T03:03:32;102293.0;;;7.84;100.0
64023;BME280;50264;52.088;5.296;2023-04-08T03:05:08;102291.0;;;7.81;100.0
64023;BME280;50264;52.088;5.296;2023-04-08T03:06:45;102294.0;;;7.83;100.0
64023;BME280;50264;52.088;5.296;2023-04-08T03:09:58;102292.0;;;7.91;100.0
64023;BME280;50264;52.088;5.296;2023-04-08T03:11:35;102295.0;;;7.87;100.0
64023;BME280;50264;52.088;5.296;2023-04-08T03:13:11;102291.0;;;7.85;100.0
64023;BME280;50264;52.088;5.296;2023-04-08T03:14:47;102300.0;;;7.86;100.0
64023;BME280;50264;52.088;5.296;2023-04-08T03:18:00;102294.0;;;7.9;100.0
64023;BME280;50264;52.088;5.296;2023-04-08T03:19:37;102298.0;;;7.86;100.0
64023;BME280;50264;52.088;5.296;2023-04-08T03:21:13;102298.0;;;7.86;100.0
64023;BME280;50264;52.088;5.296;2023-04-08T03:24:25;102300.0;;;7.79;100.0
64023;BME280;50264;52.088;5.296;2023-04-08T03:26:01;102301.0;;;7.77;100.0
64023;BME280;50264;52.088;5.296;2023-04-08T03:27:37;102300.0;;;7.76;100.0
64023;BME280;50264;52.088;5.296;2023-04-08T03:30:50;102296.0;;;7.77;100.0
64023;BME280;50264;52.088;5.296;2023-04-08T03:32:26;102297.0;;;7.88;100.0
64023;BME280;50264;52.088;5.296;2023-04-08T03:34:02;102298.0;;;7.85;100.0
64023;BME280;50264;52.088;5.296;2023-04-08T03:35:38;102297.0;;;7.87;100.0
64023;BME280;50264;52.088;5.296;2023-04-08T03:38:49;102295.0;;;7.89;100.0
64023;BME280;50264;52.088;5.296;2023-04-08T03:40:26;102302.0;;;7.89;100.0
64023;BME280;50264;52.088;5.296;2023-04-08T03:42:02;102306.0;;;7.83;100.0
64023;BME280;50264;52.088;5.296;2023-04-08T03:45:14;102312.0;;;7.7;100.0
64023;BME280;50264;52.088;5.296;2023-04-08T03:46:50;102307.0;;;7.79;100.0
64023;BME280;50264;52.088;5.296;2023-04-08T03:48:26;102313.0;;;7.65;100.0
64023;BME280;50264;52.088;5.296;2023-04-08T03:51:38;102312.0;;;7.62;100.0
64023;BME280;50264;52.088;5.296;2023-04-08T03:53:15;102322.0;;;7.61;100.0
64023;BME280;50264;52.088;5.296;2023-04-08T03:54:51;102321.0;;;7.57;100.0
64023;BME280;50264;52.088;5.296;2023-04-08T03:58:03;102322.0;;;7.51;100.0
64023;BME280;50264;52.088;5.296;2023-04-08T03:59:39;102325.0;;;7.47;100.0
64023;BME280;50264;52.088;5.296;2023-04-08T04:01:15;102323.0;;;7.48;100.0
64023;BME280;50264;52.088;5.296;2023-04-08T04:02:52;102325.0;;;7.43;100.0
64023;BME280;50264;52.088;5.296;2023-04-08T04:06:04;102326.0;;;7.43;100.0
64023;BME280;50264;52.088;5.296;2023-04-08T04:07:40;102328.0;;;7.46;100.0
64023;BME280;50264;52.088;5.296;2023-04-08T04:09:16;102327.0;;;7.39;100.0
64023;BME280;50264;52.088;5.296;2023-04-08T04:12:28;102333.0;;;7.31;100.0
64023;BME280;50264;52.088;5.296;2023-04-08T04:14:05;102331.0;;;7.37;100.0
64023;BME280;50264;52.088;5.296;2023-04-08T04:15:41;102326.0;;;7.37;100.0
64023;BME280;50264;52.088;5.296;2023-04-08T04:18:53;102332.0;;;7.41;100.0
64023;BME280;50264;52.088;5.296;2023-04-08T04:20:29;102339.0;;;7.35;100.0
64023;BME280;50264;52.088;5.296;2023-04-08T04:22:05;102340.0;;;7.39;100.0
64023;BME280;50264;52.088;5.296;2023-04-08T04:23:41;102344.0;;;7.37;100.0
64023;BME280;50264;52.088;5.296;2023-04-08T04:26:54;102353.0;;;7.37;100.0
64023;BME280;50264;52.088;5.296;2023-04-08T04:28:30;102357.0;;;7.34;100.0
64023;BME280;50264;52.088;5.296;2023-04-08T04:30:07;102351.0;;;7.35;100.0
64023;BME280;50264;52.088;5.296;2023-04-08T04:33:19;102346.0;;;7.37;100.0
64023;BME280;50264;52.088;5.296;2023-04-08T04:34:55;102353.0;;;7.37;100.0
64023;BME280;50264;52.088;5.296;2023-04-08T04:36:31;102356.0;;;7.5;100.0
64023;BME280;50264;52.088;5.296;2023-04-08T04:39:44;102357.0;;;7.48;100.0
64023;BME280;50264;52.088;5.296;2023-04-08T04:41:20;102359.0;;;7.52;100.0
64023;BME280;50264;52.088;5.296;2023-04-08T04:42:56;102363.0;;;7.54;100.0
64023;BME280;50264;52.088;5.296;2023-04-08T04:46:08;102365.0;;;7.57;100.0
64023;BME280;50264;52.088;5.296;2023-04-08T04:47:44;102371.0;;;7.56;100.0
64023;BME280;50264;52.088;5.296;2023-04-08T04:49:21;102370.0;;;7.59;100.0
64023;BME280;50264;52.088;5.296;2023-04-08T04:50:58;102372.0;;;7.54;99.98
64023;BME280;50264;52.088;5.296;2023-04-08T04:54:12;102376.0;;;7.52;100.0
64023;BME280;50264;52.088;5.296;2023-04-08T04:55:48;102374.0;;;7.52;100.0
64023;BME280;50264;52.088;5.296;2023-04-08T04:57:25;102373.0;;;7.39;100.0
64023;BME280;50264;52.088;5.296;2023-04-08T05:00:38;102374.0;;;7.36;100.0
64023;BME280;50264;52.088;5.296;2023-04-08T05:02:15;102380.0;;;7.31;100.0
64023;BME280;50264;52.088;5.296;2023-04-08T05:03:51;102377.0;;;7.21;100.0
64023;BME280;50264;52.088;5.296;2023-04-08T05:07:03;102377.0;;;7.19;100.0
64023;BME280;50264;52.088;5.296;2023-04-08T05:08:39;102380.0;;;7.29;100.0
64023;BME280;50264;52.088;5.296;2023-04-08T05:10:16;102381.0;;;7.35;100.0
64023;BME280;50264;52.088;5.296;2023-04-08T05:11:52;102383.0;;;7.38;100.0
64023;BME280;50264;52.088;5.296;2023-04-08T05:15:05;102386.0;;;7.36;100.0
64023;BME280;50264;52.088;5.296;2023-04-08T05:16:41;102389.0;;;7.27;100.0
64023;BME280;50264;52.088;5.296;2023-04-08T05:18:17;102386.0;;;7.27;100.0
64023;BME280;50264;52.088;5.296;2023-04-08T05:21:30;102392.0;;;7.43;100.0
64023;BME280;50264;52.088;5.296;2023-04-08T05:23:06;102393.0;;;7.41;100.0
64023;BME280;50264;52.088;5.296;2023-04-08T05:24:42;102393.0;;;7.52;99.96
64023;BME280;50264;52.088;5.296;2023-04-08T05:27:54;102392.0;;;7.5;99.84
64023;BME280;50264;52.088;5.296;2023-04-08T05:29:31;102396.0;;;7.34;100.0
64023;BME280;50264;52.088;5.296;2023-04-08T05:31:07;102396.0;;;7.31;100.0
64023;BME280;50264;52.088;5.296;2023-04-08T05:32:43;102393.0;;;7.16;100.0
64023;BME280;50264;52.088;5.296;2023-04-08T05:35:55;102392.0;;;7.2;100.0
64023;BME280;50264;52.088;5.296;2023-04-08T05:37:31;102396.0;;;7.15;100.0
64023;BME280;50264;52.088;5.296;2023-04-08T05:39:07;102397.0;;;7.17;100.0
64023;BME280;50264;52.088;5.296;2023-04-08T05:42:20;102398.0;;;7.18;100.0
64023;BME280;50264;52.088;5.296;2023-04-08T05:43:56;102401.0;;;7.18;100.0
64023;BME280;50264;52.088;5.296;2023-04-08T05:45:32;102403.0;;;7.19;100.0
64023;BME280;50264;52.088;5.296;2023-04-08T05:48:44;102408.0;;;7.17;100.0
64023;BME280;50264;52.088;5.296;2023-04-08T05:50:20;102411.99999999999;;;7.11;100.0
64023;BME280;50264;52.088;5.296;2023-04-08T05:51:56;102415.00000000001;;;7.17;100.0
64023;BME280;50264;52.088;5.296;2023-04-08T05:55:09;102416.00000000001;;;7.13;100.0
64023;BME280;50264;52.088;5.296;2023-04-08T05:56:45;102422.0;;;7.21;100.0
64023;BME280;50264;52.088;5.296;2023-04-08T05:58:21;102423.0;;;7.22;100.0
64023;BME280;50264;52.088;5.296;2023-04-08T05:59:57;102418.0;;;7.18;100.0
64023;BME280;50264;52.088;5.296;2023-04-08T06:03:09;102423.0;;;7.16;100.0
64023;BME280;50264;52.088;5.296;2023-04-08T06:04:46;102424.0;;;7.06;99.71
64023;BME280;50264;52.088;5.296;2023-04-08T06:06:22;102430.0;;;6.96;99.2
64023;BME280;50264;52.088;5.296;2023-04-08T06:09:35;102433.0;;;6.9;99.39
64023;BME280;50264;52.088;5.296;2023-04-08T06:11:10;102433.0;;;6.87;100.0
64023;BME280;50264;52.088;5.296;2023-04-08T06:12:46;102429.0;;;6.87;100.0
64023;BME280;50264;52.088;5.296;2023-04-08T06:16:09;102428.0;;;6.74;100.0
64023;BME280;50264;52.088;5.296;2023-04-08T06:17:46;102426.0;;;6.75;100.0
64023;BME280;50264;52.088;5.296;2023-04-08T06:19:22;102433.99999999999;;;6.68;99.68
64023;BME280;50264;52.088;5.296;2023-04-08T06:20:58;102433.99999999999;;;6.66;99.13
64023;BME280;50264;52.088;5.296;2023-04-08T06:24:10;102440.00000000001;;;6.63;98.57
64023;BME280;50264;52.088;5.296;2023-04-08T06:25:46;102444.0;;;6.55;99.04
64023;BME280;50264;52.088;5.296;2023-04-08T06:27:22;102449.0;;;6.47;99.58
64023;BME280;50264;52.088;5.296;2023-04-08T06:30:35;102451.0;;;6.43;99.33
64023;BME280;50264;52.088;5.296;2023-04-08T06:32:11;102452.0;;;6.42;99.6
64023;BME280;50264;52.088;5.296;2023-04-08T06:33:47;102458.0;;;6.43;99.29
64023;BME280;50264;52.088;5.296;2023-04-08T06:36:59;102455.0;;;6.44;98.92
64023;BME280;50264;52.088;5.296;2023-04-08T06:38:35;102458.0;;;6.5;99.14
64023;BME280;50264;52.088;5.296;2023-04-08T06:40:12;102459.99999999999;;;6.48;99.02
64023;BME280;50264;52.088;5.296;2023-04-08T06:41:48;102458.99999999999;;;6.7;98.71
64023;BME280;50264;52.088;5.296;2023-04-08T06:45:00;102467.0;;;6.8;97.65
64023;BME280;50264;52.088;5.296;2023-04-08T06:46:36;102474.0;;;6.67;98.01
64023;BME280;50264;52.088;5.296;2023-04-08T06:48:12;102472.0;;;6.63;98.74
64023;BME280;50264;52.088;5.296;2023-04-08T06:51:25;102476.0;;;6.76;98.53
64023;BME280;50264;52.088;5.296;2023-04-08T06:53:01;102478.0;;;6.79;98.27
64023;BME280;50264;52.088;5.296;2023-04-08T06:54:37;102479.0;;;6.77;97.68
64023;BME280;50264;52.088;5.296;2023-04-08T06:57:49;102480.0;;;6.77;95.04
64023;BME280;50264;52.088;5.296;2023-04-08T06:59:26;102474.0;;;6.84;94.46
64023;BME280;50264;52.088;5.296;2023-04-08T07:01:02;102481.0;;;6.84;92.78
64023;BME280;50264;52.088;5.296;2023-04-08T07:04:14;102481.0;;;6.98;94.36
64023;BME280;50264;52.088;5.296;2023-04-08T07:05:51;102483.99999999999;;;6.97;95.42
64023;BME280;50264;52.088;5.296;2023-04-08T07:07:26;102489.00000000001;;;6.97;95.5
64023;BME280;50264;52.088;5.296;2023-04-08T07:09:03;102498.0;;;7.1;93.71
64023;BME280;50264;52.088;5.296;2023-04-08T07:12:15;102497.0;;;7.13;95.48
64023;BME280;50264;52.088;5.296;2023-04-08T07:13:51;102501.0;;;7.19;93.52
64023;BME280;50264;52.088;5.296;2023-04-08T07:15:27;102498.0;;;7.29;93.02
64023;BME280;50264;52.088;5.296;2023-04-08T07:18:40;102495.0;;;7.5;93.59
64023;BME280;50264;52.088;5.296;2023-04-08T07:20:16;102499.0;;;7.47;92.33
64023;BME280;50264;52.088;5.296;2023-04-08T07:21:52;102504.0;;;7.55;91.87
64023;BME280;50264;52.088;5.296;2023-04-08T07:25:05;102508.99999999999;;;7.63;91.65
64023;BME280;50264;52.088;5.296;2023-04-08T07:26:42;102518.0;;;7.51;92.72
64023;BME280;50264;52.088;5.296;2023-04-08T07:28:18;102515.00000000001;;;7.6;91.61
64023;BME280;50264;52.088;5.296;2023-04-08T07:29:54;102521.0;;;7.53;91.54
64023;BME280;50264;52.088;5.296;2023-04-08T07:33:06;102517.0;;;7.55;91.45
64023;BME280;50264;52.088;5.296;2023-04-08T07:34:42;102514.00000000001;;;7.49;90.77
64023;BME280;50264;52.088;5.296;2023-04-08T07:36:19;102518.0;;;7.47;90.95
64023;BME280;50264;52.088;5.296;2023-04-08T07:39:31;102517.0;;;7.54;92.11
64023;BME280;50264;52.088;5.296;2023-04-08T07:41:07;102517.0;;;7.62;90.93
64023;BME280;50264;52.088;5.296;2023-04-08T07:42:43;102518.0;;;7.6;88.45
64023;BME280;50264;52.088;5.296;2023-04-08T07:45:59;102519.0;;;7.79;87.98
64023;BME280;50264;52.088;5.296;2023-04-08T07:47:35;102524.0;;;7.92;87.58
64023;BME280;50264;52.088;5.296;2023-04-08T07:49:11;102519.0;;;7.94;88.77
64023;BME280;50264;52.088;5.296;2023-04-08T07:50:47;102528.0;;;7.81;87.78
64023;BME280;50264;52.088;5.296;2023-04-08T07:53:59;102527.0;;;8.05;86.2
64023;BME280;50264;52.088;5.296;2023-04-08T07:55:36;102525.0;;;8.03;89.39
64023;BME280;50264;52.088;5.296;2023-04-08T07:57:12;102524.0;;;8.1;88.19
64023;BME280;50264;52.088;5.296;2023-04-08T08:00:24;102525.0;;;8.13;86.64
64023;BME280;50264;52.088;5.296;2023-04-08T08:02:00;102525.0;;;8.39;85.1
64023;BME280;50264;52.088;5.296;2023-04-08T08:03:36;102526.0;;;8.4;86.04
64023;BME280;50264;52.088;5.296;2023-04-08T08:06:49;102529.0;;;8.48;86.44
64023;BME280;50264;52.088;5.296;2023-04-08T08:08:25;102531.0;;;8.39;86.22
64023;BME280;50264;52.088;5.296;2023-04-08T08:10:01;102533.99999999999;;;8.33;83.92
64023;BME280;50264;52.088;5.296;2023-04-08T08:13:13;102532.0;;;8.5;84.93
64023;BME280;50264;52.088;5.296;2023-04-08T08:14:50;102531.0;;;8.69;81.16
64023;BME280;50264;52.088;5.296;2023-04-08T08:16:27;102538.00000000001;;;8.78;79.73
64023;BME280;50264;52.088;5.296;2023-04-08T08:18:03;102539.00000000001;;;8.91;79.81
64023;BME280;50264;52.088;5.296;2023-04-08T08:21:15;102533.99999999999;;;8.98;79.8
64023;BME280;50264;52.088;5.296;2023-04-08T08:22:51;102534.99999999999;;;8.91;79.72
64023;BME280;50264;52.088;5.296;2023-04-08T08:24:28;102534.99999999999;;;9.14;78.16
64023;BME280;50264;52.088;5.296;2023-04-08T08:27:42;102532.0;;;9.31;78.09
64023;BME280;50264;52.088;5.296;2023-04-08T08:29:18;102533.99999999999;;;9.27;78.86
64023;BME280;50264;52.088;5.296;2023-04-08T08:30:54;102533.0;;;9.3;78.11
64023;BME280;50264;52.088;5.296;2023-04-08T08:34:07;102540.00000000001;;;9.46;77.72
64023;BME280;50264;52.088;5.296;2023-04-08T08:35:43;102539.00000000001;;;9.57;77.3
64023;BME280;50264;52.088;5.296;2023-04-08T08:37:19;102534.99999999999;;;9.73;78.52
64023;BME280;50264;52.088;5.296;2023-04-08T08:38:55;102533.0;;;9.72;76.58
64023;BME280;50264;52.088;5.296;2023-04-08T08:42:17;102541.00000000001;;;9.89;76.75
64023;BME280;50264;52.088;5.296;2023-04-08T08:43:55;102542.0;;;9.94;74.47
64023;BME280;50264;52.088;5.296;2023-04-08T08:45:32;102545.0;;;10.13;73.69
64023;BME280;50264;52.088;5.296;2023-04-08T08:48:44;102541.00000000001;;;10.35;74.84
64023;BME280;50264;52.088;5.296;2023-04-08T08:50:20;102547.0;;;10.42;72.27
64023;BME280;50264;52.088;5.296;2023-04-08T08:51:57;102546.0;;;10.65;73.69
64023;BME280;50264;52.088;5.296;2023-04-08T08:53:35;102549.0;;;10.8;73.99
64023;BME280;50264;52.088;5.296;2023-04-08T08:56:48;102553.0;;;10.91;69.48
64023;BME280;50264;52.088;5.296;2023-04-08T08:58:25;102547.0;;;11.01;71.11
64023;BME280;50264;52.088;5.296;2023-04-08T09:00:02;102549.0;;;11.27;73.72
64023;BME280;50264;52.088;5.296;2023-04-08T09:03:15;102546.0;;;11.37;69.41
64023;BME280;50264;52.088;5.296;2023-04-08T09:04:56;102549.0;;;11.52;67.88
64023;BME280;50264;52.088;5.296;2023-04-08T09:06:35;102543.0;;;11.63;69.77
64023;BME280;50264;52.088;5.296;2023-04-08T09:09:58;102546.0;;;11.7;70.28
64023;BME280;50264;52.088;5.296;2023-04-08T09:11:35;102546.0;;;11.97;71.14
64023;BME280;50264;52.088;5.296;2023-04-08T09:13:12;102548.0;;;12.09;70.27
64023;BME280;50264;52.088;5.296;2023-04-08T09:14:48;102551.0;;;12.16;67.77
64023;BME280;50264;52.088;5.296;2023-04-08T09:18:01;102552.0;;;12.24;66.14
64023;BME280;50264;52.088;5.296;2023-04-08T09:19:38;102547.0;;;12.18;66.83
64023;BME280;50264;52.088;5.296;2023-04-08T09:21:15;102551.0;;;12.33;65.66
64023;BME280;50264;52.088;5.296;2023-04-08T09:22:56;102553.0;;;12.59;69.19
64023;BME280;50264;52.088;5.296;2023-04-08T09:26:13;102557.0;;;12.83;67.84
64023;BME280;50264;52.088;5.296;2023-04-08T09:27:49;102561.99999999999;;;12.79;63.13
64023;BME280;50264;52.088;5.296;2023-04-08T09:29:26;102558.0;;;12.95;64.91
64023;BME280;50264;52.088;5.296;2023-04-08T09:32:55;102558.99999999999;;;12.94;60.14
64023;BME280;50264;52.088;5.296;2023-04-08T09:34:31;102558.99999999999;;;13.12;59.58
64023;BME280;50264;52.088;5.296;2023-04-08T09:36:07;102557.0;;;13.21;60.74
64023;BME280;50264;52.088;5.296;2023-04-08T09:37:44;102561.99999999999;;;13.23;59.54
64023;BME280;50264;52.088;5.296;2023-04-08T09:40:57;102564.00000000001;;;13.46;60.07
64023;BME280;50264;52.088;5.296;2023-04-08T09:42:39;102567.0;;;13.45;60.89
64023;BME280;50264;52.088;5.296;2023-04-08T09:44:16;102564.00000000001;;;13.65;62.16
64023;BME280;50264;52.088;5.296;2023-04-08T09:45:53;102567.0;;;13.66;59.87
64023;BME280;50264;52.088;5.296;2023-04-08T09:49:25;102571.0;;;13.41;59.8
64023;BME280;50264;52.088;5.296;2023-04-08T09:51:04;102569.0;;;13.52;58.89
64023;BME280;50264;52.088;5.296;2023-04-08T09:52:43;102566.00000000001;;;13.67;61.78
64023;BME280;50264;52.088;5.296;2023-04-08T09:54:22;102569.0;;;13.84;62.05
64023;BME280;50264;52.088;5.296;2023-04-08T09:57:51;102568.0;;;13.84;59.4
64023;BME280;50264;52.088;5.296;2023-04-08T09:59:29;102572.0;;;14.0;63.37
64023;BME280;50264;52.088;5.296;2023-04-08T10:01:13;102569.0;;;13.81;60.04
64023;BME280;50264;52.088;5.296;2023-04-08T10:02:54;102571.0;;;13.81;61.76
64023;BME280;50264;52.088;5.296;2023-04-08T10:06:16;102572.0;;;13.72;55.01
64023;BME280;50264;52.088;5.296;2023-04-08T10:07:54;102567.0;;;13.97;59.36
64023;BME280;50264;52.088;5.296;2023-04-08T10:09:31;102569.0;;;14.05;58.38
64023;BME280;50264;52.088;5.296;2023-04-08T10:11:08;102567.0;;;13.85;57.75
64023;BME280;50264;52.088;5.296;2023-04-08T10:14:21;102566.00000000001;;;13.99;56.87
64023;BME280;50264;52.088;5.296;2023-04-08T10:16:29;102563.00000000001;;;14.08;57.41
64023;BME280;50264;52.088;5.296;2023-04-08T10:18:36;102565.00000000001;;;13.98;54.28
64023;BME280;50264;52.088;5.296;2023-04-08T10:20:40;102570.0;;;14.21;57.18
64023;BME280;50264;52.088;5.296;2023-04-08T10:22:49;102568.0;;;14.33;54.37
64023;BME280;50264;52.088;5.296;2023-04-08T10:24:25;102568.0;;;14.46;54.01
64023;BME280;50264;52.088;5.296;2023-04-08T10:26:29;102569.0;;;14.48;55.55
64023;BME280;50264;52.088;5.296;2023-04-08T10:28:23;102567.0;;;14.32;54.75
64023;BME280;50264;52.088;5.296;2023-04-08T10:29:59;102566.00000000001;;;14.42;53.37
64023;BME280;50264;52.088;5.296;2023-04-08T10:33:16;102563.00000000001;;;14.44;51.8
64023;BME280;50264;52.088;5.296;2023-04-08T10:34:54;102559.99999999999;;;14.66;52.59
64023;BME280;50264;52.088;5.296;2023-04-08T10:36:30;102555.0;;;14.69;52.67
64023;BME280;50264;52.088;5.296;2023-04-08T10:39:48;102558.99999999999;;;14.49;51.28
64023;BME280;50264;52.088;5.296;2023-04-08T10:41:23;102548.0;;;14.69;54.27
64023;BME280;50264;52.088;5.296;2023-04-08T10:43:00;102548.0;;;14.71;50.78
64023;BME280;50264;52.088;5.296;2023-04-08T10:44:36;102544.0;;;14.96;53.16
64023;BME280;50264;52.088;5.296;2023-04-08T10:47:48;102548.0;;;15.0;49.77
64023;BME280;50264;52.088;5.296;2023-04-08T10:49:31;102546.0;;;14.95;51.73
64023;BME280;50264;52.088;5.296;2023-04-08T10:51:08;102551.0;;;15.09;51.34
64023;BME280;50264;52.088;5.296;2023-04-08T10:54:22;102548.0;;;15.01;52.04
64023;BME280;50264;52.088;5.296;2023-04-08T10:56:06;102548.0;;;15.26;51.72
64023;BME280;50264;52.088;5.296;2023-04-08T10:57:43;102545.0;;;15.34;52.84
64023;BME280;50264;52.088;5.296;2023-04-08T10:59:27;102544.0;;;15.24;50.09
64023;BME280;50264;52.088;5.296;2023-04-08T11:02:40;102546.0;;;15.47;47.39
64023;BME280;50264;52.088;5.296;2023-04-08T11:04:17;102541.00000000001;;;15.67;47.18
64023;BME280;50264;52.088;5.296;2023-04-08T11:05:56;102542.0;;;15.53;51.83